createdAt,value
2018-05-17T00:00:23.672Z,14.53
2018-05-17T00:01:23.904Z,14.54
2018-05-17T00:02:24.018Z,14.53
2018-05-17T00:03:24.231Z,14.56
2018-05-17T00:04:24.453Z,14.61
2018-05-17T00:05:24.674Z,14.46
2018-05-17T00:06:24.887Z,14.42
2018-05-17T00:07:25.109Z,14.46
2018-05-17T00:08:25.315Z,14.38
2018-05-17T00:09:25.528Z,14.42
2018-05-17T00:10:25.740Z,14.43
2018-05-17T00:11:25.948Z,14.35
2018-05-17T00:12:26.158Z,14.39
2018-05-17T00:13:26.373Z,14.35
2018-05-17T00:14:26.578Z,14.37
2018-05-17T00:15:26.789Z,14.42
2018-05-17T00:16:27.007Z,14.34
2018-05-17T00:17:29.200Z,14.25
2018-05-17T00:18:27.412Z,14.32
2018-05-17T00:19:27.641Z,14.28
2018-05-17T00:20:27.854Z,14.19
2018-05-17T00:21:28.069Z,14.37
2018-05-17T00:22:28.297Z,14.27
2018-05-17T00:23:28.517Z,14.25
2018-05-17T00:24:28.725Z,14.38
2018-05-17T00:25:28.938Z,14.34
2018-05-17T00:26:29.158Z,14.34
2018-05-17T00:27:31.198Z,14.38
2018-05-17T00:28:29.535Z,14.34
2018-05-17T00:29:32.711Z,14.17
2018-05-17T00:30:31.689Z,14.24
2018-05-17T00:31:30.051Z,14.14
2018-05-17T00:32:30.244Z,14.07
2018-05-17T00:33:30.448Z,14.07
2018-05-17T00:34:32.190Z,14.10
2018-05-17T00:35:30.793Z,14.10
2018-05-17T00:36:32.691Z,14.14
2018-05-17T00:37:31.038Z,14.02
2018-05-17T00:38:31.261Z,14.06
2018-05-17T00:39:31.461Z,14.13
2018-05-17T00:40:31.677Z,13.99
2018-05-17T00:41:33.704Z,14.12
2018-05-17T00:42:32.053Z,14.06
2018-05-17T00:43:32.263Z,14.07
2018-05-17T00:44:34.193Z,13.99
2018-05-17T00:45:32.657Z,14.02
2018-05-17T00:46:32.874Z,13.94
2018-05-17T00:47:33.085Z,14.04
2018-05-17T00:48:33.294Z,13.98
2018-05-17T00:49:35.191Z,13.96
2018-05-17T00:50:33.671Z,13.96
2018-05-17T00:51:35.693Z,14.06
2018-05-17T00:52:34.036Z,14.04
2018-05-17T00:53:34.261Z,14.02
2018-05-17T00:54:34.473Z,14.07
2018-05-17T00:55:34.681Z,13.99
2018-05-17T00:56:34.901Z,14.02
2018-05-17T00:57:35.120Z,13.98
2018-05-17T00:58:35.330Z,13.98
2018-05-17T00:59:35.545Z,13.83
2018-05-17T01:00:35.755Z,13.83
2018-05-17T01:01:37.703Z,13.71
2018-05-17T01:02:36.175Z,13.70
2018-05-17T01:03:40.207Z,13.76
2018-05-17T01:04:36.541Z,13.83
2018-05-17T01:05:36.776Z,13.81
2018-05-17T01:06:36.988Z,13.88
2018-05-17T01:07:37.212Z,13.95
2018-05-17T01:08:37.430Z,13.84
2018-05-17T01:09:39.196Z,13.71
2018-05-17T01:10:37.798Z,13.73
2018-05-17T01:11:38.015Z,13.69
2018-05-17T01:12:38.220Z,13.69
2018-05-17T01:13:41.197Z,13.70
2018-05-17T01:14:38.667Z,13.71
2018-05-17T01:15:38.872Z,13.63
2018-05-17T01:16:39.086Z,13.63
2018-05-17T01:17:39.294Z,13.56
2018-05-17T01:18:39.515Z,13.63
2018-05-17T01:19:41.692Z,13.71
2018-05-17T01:20:39.914Z,13.70
2018-05-17T01:21:43.691Z,13.69
2018-05-17T01:22:42.196Z,13.70
2018-05-17T01:23:40.422Z,13.67
2018-05-17T01:24:40.635Z,13.73
2018-05-17T01:25:40.853Z,13.70
2018-05-17T01:26:41.080Z,13.55
2018-05-17T01:27:41.305Z,13.44
2018-05-17T01:28:41.518Z,13.33
2018-05-17T01:29:41.730Z,13.36
2018-05-17T01:30:41.941Z,13.41
2018-05-17T01:31:42.150Z,13.32
2018-05-17T01:32:42.374Z,13.33
2018-05-17T01:33:42.579Z,13.27
2018-05-17T01:34:42.793Z,13.43
2018-05-17T01:35:44.697Z,13.43
2018-05-17T01:36:44.708Z,13.37
2018-05-17T01:37:43.289Z,13.36
2018-05-17T01:38:43.531Z,13.37
2018-05-17T01:39:43.627Z,13.37
2018-05-17T01:40:43.846Z,13.36
2018-05-17T01:41:44.053Z,13.46
2018-05-17T01:42:46.192Z,13.43
2018-05-17T01:43:44.408Z,13.40
2018-05-17T01:44:44.619Z,13.38
2018-05-17T01:45:44.842Z,13.29
2018-05-17T01:46:45.058Z,13.43
2018-05-17T01:47:45.268Z,13.40
2018-05-17T01:48:45.491Z,13.40
2018-05-17T01:49:45.701Z,13.44
2018-05-17T01:50:45.909Z,13.54
2018-05-17T01:51:46.137Z,13.56
2018-05-17T01:52:46.344Z,13.51
2018-05-17T01:53:46.559Z,13.54
2018-05-17T01:54:48.700Z,13.55
2018-05-17T01:55:46.914Z,13.55
2018-05-17T01:56:47.142Z,13.56
2018-05-17T01:57:47.367Z,13.62
2018-05-17T01:58:47.580Z,13.62
2018-05-17T01:59:47.796Z,13.69
2018-05-17T02:00:48.017Z,13.74
2018-05-17T02:01:48.236Z,13.65
2018-05-17T02:02:48.453Z,13.63
2018-05-17T02:03:48.671Z,13.46
2018-05-17T02:04:48.881Z,13.47
2018-05-17T02:05:49.097Z,13.40
2018-05-17T02:06:49.308Z,13.44
2018-05-17T02:07:49.526Z,13.56
2018-05-17T02:08:49.741Z,13.65
2018-05-17T02:09:49.954Z,13.63
2018-05-17T02:10:50.175Z,13.62
2018-05-17T02:11:50.385Z,13.62
2018-05-17T02:12:50.635Z,13.65
2018-05-17T02:13:50.838Z,13.56
2018-05-17T02:14:51.052Z,13.61
2018-05-17T02:15:51.270Z,13.55
2018-05-17T02:16:51.491Z,13.51
2018-05-17T02:17:51.700Z,13.54
2018-05-17T02:18:51.917Z,13.44
2018-05-17T02:19:52.131Z,13.40
2018-05-17T02:20:52.343Z,13.44
2018-05-17T02:21:54.194Z,13.46
2018-05-17T02:22:52.791Z,13.32
2018-05-17T02:23:54.697Z,13.33
2018-05-17T02:24:53.167Z,13.41
2018-05-17T02:25:53.381Z,13.49
2018-05-17T02:26:53.584Z,13.43
2018-05-17T02:27:53.805Z,13.43
2018-05-17T02:28:54.015Z,13.38
2018-05-17T02:29:54.227Z,13.49
2018-05-17T02:30:54.454Z,13.51
2018-05-17T02:31:54.673Z,13.55
2018-05-17T02:32:54.900Z,13.43
2018-05-17T02:33:55.120Z,13.47
2018-05-17T02:34:57.194Z,13.49
2018-05-17T02:35:55.542Z,13.44
2018-05-17T02:36:55.759Z,13.38
2018-05-17T02:37:55.969Z,13.30
2018-05-17T02:38:56.188Z,13.33
2018-05-17T02:39:56.391Z,13.37
2018-05-17T02:40:56.611Z,13.40
2018-05-17T02:41:56.825Z,13.27
2018-05-17T02:42:57.038Z,13.40
2018-05-17T02:43:59.238Z,13.40
2018-05-17T02:44:57.406Z,13.43
2018-05-17T02:45:57.623Z,13.38
2018-05-17T02:46:57.841Z,13.33
2018-05-17T02:47:58.052Z,13.32
2018-05-17T02:48:58.291Z,13.32
2018-05-17T02:50:00.219Z,13.40
2018-05-17T02:51:00.206Z,13.46
2018-05-17T02:51:58.673Z,13.29
2018-05-17T02:53:02.696Z,13.38
2018-05-17T02:53:59.039Z,13.21
2018-05-17T02:54:59.260Z,13.24
2018-05-17T02:55:59.477Z,13.20
2018-05-17T02:56:59.686Z,13.14
2018-05-17T02:57:59.903Z,13.11
2018-05-17T02:59:00.110Z,13.15
2018-05-17T03:00:00.327Z,13.03
2018-05-17T03:01:00.552Z,12.93
2018-05-17T03:02:02.696Z,12.84
2018-05-17T03:03:00.919Z,12.84
2018-05-17T03:04:01.135Z,12.97
2018-05-17T03:05:01.355Z,12.81
2018-05-17T03:06:01.580Z,12.87
2018-05-17T03:07:01.803Z,13.04
2018-05-17T03:08:02.026Z,13.06
2018-05-17T03:09:02.243Z,12.97
2018-05-17T03:10:02.454Z,12.97
2018-05-17T03:11:02.671Z,13.07
2018-05-17T03:12:02.904Z,13.07
2018-05-17T03:13:03.012Z,13.06
2018-05-17T03:14:03.234Z,13.07
2018-05-17T03:15:03.459Z,12.89
2018-05-17T03:16:03.674Z,12.89
2018-05-17T03:17:03.888Z,12.92
2018-05-17T03:18:04.097Z,12.84
2018-05-17T03:19:08.357Z,12.71
2018-05-17T03:20:04.447Z,12.87
2018-05-17T03:21:04.664Z,12.77
2018-05-17T03:22:04.876Z,12.92
2018-05-17T03:23:05.101Z,12.77
2018-05-17T03:24:05.303Z,12.71
2018-05-17T03:25:05.518Z,12.77
2018-05-17T03:26:05.731Z,12.77
2018-05-17T03:27:05.947Z,12.66
2018-05-17T03:28:06.166Z,12.82
2018-05-17T03:29:06.377Z,12.69
2018-05-17T03:30:06.604Z,12.66
2018-05-17T03:31:06.844Z,12.64
2018-05-17T03:32:07.022Z,12.57
2018-05-17T03:33:07.255Z,12.60
2018-05-17T03:34:07.352Z,12.60
2018-05-17T03:35:07.571Z,12.60
2018-05-17T03:36:07.799Z,12.59
2018-05-17T03:37:08.021Z,12.57
2018-05-17T03:38:08.246Z,12.57
2018-05-17T03:39:08.468Z,12.59
2018-05-17T03:40:08.682Z,12.49
2018-05-17T03:41:08.905Z,12.49
2018-05-17T03:42:09.121Z,12.45
2018-05-17T03:43:09.332Z,12.54
2018-05-17T03:44:09.578Z,12.54
2018-05-17T03:45:09.770Z,12.63
2018-05-17T03:46:09.981Z,12.62
2018-05-17T03:47:11.703Z,12.63
2018-05-17T03:48:10.443Z,12.56
2018-05-17T03:49:10.615Z,12.52
2018-05-17T03:50:10.827Z,12.57
2018-05-17T03:51:11.059Z,12.49
2018-05-17T03:52:11.264Z,12.67
2018-05-17T03:53:13.202Z,12.57
2018-05-17T03:54:11.540Z,12.69
2018-05-17T03:55:13.700Z,12.64
2018-05-17T03:56:11.917Z,12.69
2018-05-17T03:57:13.712Z,12.62
2018-05-17T03:58:14.205Z,12.52
2018-05-17T03:59:12.413Z,12.66
2018-05-17T04:00:12.657Z,12.60
2018-05-17T04:01:12.938Z,12.56
2018-05-17T04:02:13.056Z,12.69
2018-05-17T04:03:13.282Z,12.70
2018-05-17T04:04:13.505Z,12.62
2018-05-17T04:05:13.756Z,12.56
2018-05-17T04:06:15.712Z,12.56
2018-05-17T04:07:14.050Z,12.54
2018-05-17T04:08:14.257Z,12.64
2018-05-17T04:09:14.473Z,12.64
2018-05-17T04:10:14.681Z,12.74
2018-05-17T04:11:16.705Z,12.78
2018-05-17T04:12:15.049Z,12.82
2018-05-17T04:13:15.261Z,12.85
2018-05-17T04:14:15.476Z,12.88
2018-05-17T04:15:15.708Z,13.00
2018-05-17T04:16:15.920Z,12.95
2018-05-17T04:17:16.146Z,13.02
2018-05-17T04:18:16.329Z,13.02
2018-05-17T04:19:16.550Z,13.04
2018-05-17T04:20:16.765Z,13.00
2018-05-17T04:21:16.976Z,13.06
2018-05-17T04:22:17.201Z,13.11
2018-05-17T04:23:17.394Z,13.09
2018-05-17T04:24:17.609Z,13.14
2018-05-17T04:25:17.827Z,13.11
2018-05-17T04:26:18.039Z,13.07
2018-05-17T04:27:18.259Z,12.97
2018-05-17T04:28:20.225Z,13.03
2018-05-17T04:29:18.684Z,13.07
2018-05-17T04:30:18.879Z,13.09
2018-05-17T04:31:19.103Z,13.07
2018-05-17T04:32:19.341Z,13.15
2018-05-17T04:33:19.536Z,13.06
2018-05-17T04:34:19.759Z,13.17
2018-05-17T04:35:19.967Z,13.17
2018-05-17T04:36:20.191Z,13.18
2018-05-17T04:37:20.399Z,13.21
2018-05-17T04:38:20.608Z,13.12
2018-05-17T04:39:20.827Z,13.11
2018-05-17T04:40:21.058Z,12.97
2018-05-17T04:41:23.205Z,12.81
2018-05-17T04:42:21.419Z,12.67
2018-05-17T04:43:21.649Z,12.69
2018-05-17T04:44:21.877Z,12.62
2018-05-17T04:45:22.088Z,12.66
2018-05-17T04:46:26.204Z,12.64
2018-05-17T04:47:22.416Z,12.71
2018-05-17T04:48:24.208Z,12.81
2018-05-17T04:49:24.708Z,12.77
2018-05-17T04:50:22.920Z,12.71
2018-05-17T04:51:24.701Z,12.67
2018-05-17T04:52:23.292Z,12.60
2018-05-17T04:53:23.509Z,12.67
2018-05-17T04:54:23.731Z,12.66
2018-05-17T04:55:23.945Z,12.75
2018-05-17T04:56:24.158Z,12.85
2018-05-17T04:57:24.367Z,12.78
2018-05-17T04:58:31.211Z,12.71
2018-05-17T04:59:27.706Z,12.69
2018-05-17T05:00:24.935Z,12.60
2018-05-17T05:01:25.154Z,12.51
2018-05-17T05:02:25.370Z,12.51
2018-05-17T05:03:27.236Z,12.44
2018-05-17T05:04:25.798Z,12.63
2018-05-17T05:05:26.010Z,12.59
2018-05-17T05:06:26.229Z,12.54
2018-05-17T05:07:26.441Z,12.67
2018-05-17T05:08:26.659Z,12.70
2018-05-17T05:09:28.730Z,12.59
2018-05-17T05:10:27.036Z,12.54
2018-05-17T05:11:29.208Z,12.46
2018-05-17T05:12:27.416Z,12.56
2018-05-17T05:13:27.642Z,12.57
2018-05-17T05:14:27.864Z,12.64
2018-05-17T05:15:28.087Z,12.69
2018-05-17T05:16:28.307Z,12.75
2018-05-17T05:17:30.205Z,12.81
2018-05-17T05:18:28.666Z,12.82
2018-05-17T05:19:28.882Z,12.85
2018-05-17T05:20:32.705Z,12.85
2018-05-17T05:21:29.308Z,12.87
2018-05-17T05:22:29.504Z,12.74
2018-05-17T05:23:31.707Z,12.64
2018-05-17T05:24:29.941Z,12.70
2018-05-17T05:25:30.147Z,12.66
2018-05-17T05:26:30.360Z,12.69
2018-05-17T05:27:30.573Z,12.75
2018-05-17T05:28:30.800Z,12.74
2018-05-17T05:29:31.011Z,12.89
2018-05-17T05:30:33.203Z,12.89
2018-05-17T05:31:31.499Z,12.95
2018-05-17T05:32:33.205Z,13.04
2018-05-17T05:33:31.789Z,13.03
2018-05-17T05:34:32.003Z,12.96
2018-05-17T05:35:32.225Z,12.75
2018-05-17T05:36:32.449Z,12.57
2018-05-17T05:37:32.679Z,12.49
2018-05-17T05:38:32.890Z,12.34
2018-05-17T05:39:33.095Z,12.48
2018-05-17T05:40:33.310Z,12.59
2018-05-17T05:41:33.529Z,12.62
2018-05-17T05:42:33.741Z,12.45
2018-05-17T05:43:33.951Z,12.42
2018-05-17T05:44:34.167Z,12.57
2018-05-17T05:45:36.208Z,12.64
2018-05-17T05:46:34.550Z,12.78
2018-05-17T05:47:34.764Z,12.89
2018-05-17T05:48:36.714Z,13.04
2018-05-17T05:49:35.188Z,13.07
2018-05-17T05:50:37.215Z,13.06
2018-05-17T05:51:35.545Z,13.03
2018-05-17T05:52:35.767Z,13.04
2018-05-17T05:53:37.706Z,13.06
2018-05-17T05:54:36.171Z,13.12
2018-05-17T05:55:36.394Z,13.04
2018-05-17T05:56:36.600Z,13.17
2018-05-17T05:57:38.710Z,13.17
2018-05-17T05:58:37.055Z,13.25
2018-05-17T05:59:37.265Z,12.95
2018-05-17T06:00:37.483Z,12.85
2018-05-17T06:01:40.244Z,12.82
2018-05-17T06:02:37.818Z,12.82
2018-05-17T06:03:38.035Z,12.87
2018-05-17T06:04:38.250Z,12.97
2018-05-17T06:05:38.473Z,13.06
2018-05-17T06:06:38.694Z,12.77
2018-05-17T06:07:38.903Z,12.81
2018-05-17T06:08:39.133Z,12.84
2018-05-17T06:09:39.352Z,12.62
2018-05-17T06:10:39.565Z,12.44
2018-05-17T06:11:39.788Z,12.41
2018-05-17T06:12:40.005Z,12.41
2018-05-17T06:13:40.216Z,12.45
2018-05-17T06:14:42.207Z,12.57
2018-05-17T06:15:40.546Z,12.60
2018-05-17T06:16:40.757Z,12.44
2018-05-17T06:17:40.981Z,12.44
2018-05-17T06:18:41.192Z,12.48
2018-05-17T06:19:41.417Z,12.34
2018-05-17T06:20:41.633Z,12.42
2018-05-17T06:21:41.845Z,12.34
2018-05-17T06:22:42.065Z,12.54
2018-05-17T06:23:42.288Z,12.71
2018-05-17T06:24:42.488Z,12.81
2018-05-17T06:25:42.708Z,12.97
2018-05-17T06:26:42.919Z,12.99
2018-05-17T06:27:43.133Z,12.81
2018-05-17T06:28:43.365Z,12.95
2018-05-17T06:29:43.554Z,13.11
2018-05-17T06:30:43.800Z,13.20
2018-05-17T06:31:43.985Z,13.36
2018-05-17T06:32:44.196Z,13.38
2018-05-17T06:33:44.430Z,13.20
2018-05-17T06:34:44.642Z,13.30
2018-05-17T06:35:44.866Z,13.29
2018-05-17T06:36:45.097Z,13.38
2018-05-17T06:37:45.299Z,13.30
2018-05-17T06:38:47.209Z,13.49
2018-05-17T06:39:47.207Z,13.59
2018-05-17T06:40:45.821Z,13.56
2018-05-17T06:41:46.015Z,13.69
2018-05-17T06:42:46.236Z,13.88
2018-05-17T06:43:46.448Z,13.98
2018-05-17T06:44:46.671Z,14.14
2018-05-17T06:45:46.883Z,14.13
2018-05-17T06:46:47.090Z,14.25
2018-05-17T06:47:47.310Z,14.34
2018-05-17T06:48:49.205Z,14.31
2018-05-17T06:49:47.664Z,14.35
2018-05-17T06:50:47.884Z,14.39
2018-05-17T06:51:49.745Z,14.38
2018-05-17T06:52:48.315Z,13.63
2018-05-17T06:53:48.526Z,13.52
2018-05-17T06:54:48.743Z,13.71
2018-05-17T06:55:48.962Z,13.76
2018-05-17T06:56:49.173Z,13.96
2018-05-17T06:57:49.475Z,14.06
2018-05-17T06:58:49.624Z,14.09
2018-05-17T06:59:49.838Z,14.38
2018-05-17T07:00:50.067Z,14.60
2018-05-17T07:01:50.257Z,14.75
2018-05-17T07:02:50.483Z,15.01
2018-05-17T07:03:50.706Z,15.06
2018-05-17T07:04:53.835Z,15.17
2018-05-17T07:05:53.718Z,15.13
2018-05-17T07:06:51.224Z,15.26
2018-05-17T07:07:53.206Z,15.49
2018-05-17T07:08:51.556Z,15.86
2018-05-17T07:09:52.651Z,15.66
2018-05-17T07:10:53.456Z,15.86
2018-05-17T07:11:52.178Z,15.64
2018-05-17T07:12:52.731Z,15.64
2018-05-17T07:13:52.601Z,15.43
2018-05-17T07:14:57.040Z,15.59
2018-05-17T07:15:56.711Z,15.46
2018-05-17T07:16:53.184Z,15.41
2018-05-17T07:17:54.786Z,15.41
2018-05-17T07:18:55.216Z,15.39
2018-05-17T07:19:53.803Z,15.27
2018-05-17T07:20:54.030Z,15.24
2018-05-17T07:21:54.247Z,15.26
2018-05-17T07:22:56.248Z,15.27
2018-05-17T07:23:54.682Z,15.15
2018-05-17T07:24:55.010Z,15.30
2018-05-17T07:25:55.098Z,15.38
2018-05-17T07:26:55.332Z,15.48
2018-05-17T07:27:55.554Z,15.84
2018-05-17T07:28:55.759Z,16.35
2018-05-17T07:29:57.727Z,16.63
2018-05-17T07:30:56.178Z,17.00
2018-05-17T07:31:56.399Z,17.25
2018-05-17T07:32:56.622Z,16.85
2018-05-17T07:33:58.441Z,17.25
2018-05-17T07:34:57.042Z,17.51
2018-05-17T07:35:57.280Z,17.81
2018-05-17T07:36:57.479Z,18.04
2018-05-17T07:37:57.719Z,17.84
2018-05-17T07:38:57.941Z,17.51
2018-05-17T07:39:58.148Z,17.20
2018-05-17T07:40:58.370Z,16.99
2018-05-17T07:41:58.593Z,16.92
2018-05-17T07:42:58.799Z,16.78
2018-05-17T07:43:59.017Z,17.15
2018-05-17T07:45:01.211Z,17.22
2018-05-17T07:45:59.432Z,17.15
2018-05-17T07:46:59.685Z,17.43
2018-05-17T07:48:01.712Z,17.63
2018-05-17T07:49:00.063Z,18.06
2018-05-17T07:50:00.277Z,18.42
2018-05-17T07:51:00.502Z,18.72
2018-05-17T07:52:02.226Z,18.94
2018-05-17T07:53:00.922Z,19.33
2018-05-17T07:54:01.200Z,19.61
2018-05-17T07:55:01.388Z,19.97
2018-05-17T07:56:05.209Z,20.33
2018-05-17T07:57:01.820Z,20.66
2018-05-17T07:58:02.047Z,20.91
2018-05-17T07:59:02.279Z,20.91
2018-05-17T08:00:04.218Z,20.62
2018-05-17T08:01:02.688Z,20.05
2018-05-17T08:02:04.712Z,18.33
2018-05-17T08:03:03.098Z,18.06
2018-05-17T08:04:03.309Z,17.85
2018-05-17T08:05:03.539Z,17.78
2018-05-17T08:06:03.759Z,16.98
2018-05-17T08:07:03.981Z,16.48
2018-05-17T08:08:04.284Z,16.58
2018-05-17T08:09:04.425Z,17.20
2018-05-17T08:10:04.650Z,17.14
2018-05-17T08:11:04.900Z,16.22
2018-05-17T08:12:07.734Z,16.35
2018-05-17T08:13:07.233Z,16.44
2018-05-17T08:14:07.215Z,16.25
2018-05-17T08:15:05.697Z,16.62
2018-05-17T08:16:05.934Z,16.50
2018-05-17T08:17:06.143Z,16.65
2018-05-17T08:18:06.448Z,16.92
2018-05-17T08:19:06.601Z,17.03
2018-05-17T08:20:06.820Z,17.18
2018-05-17T08:21:08.718Z,17.22
2018-05-17T08:22:08.184Z,17.20
2018-05-17T08:23:09.219Z,17.32
2018-05-17T08:24:09.218Z,17.62
2018-05-17T08:25:09.226Z,17.53
2018-05-17T08:26:09.719Z,17.76
2018-05-17T08:27:07.941Z,17.79
2018-05-17T08:28:08.166Z,17.79
2018-05-17T08:29:10.223Z,18.43
2018-05-17T08:30:08.585Z,18.54
2018-05-17T08:31:08.789Z,18.54
2018-05-17T08:32:10.720Z,18.47
2018-05-17T08:33:09.219Z,18.36
2018-05-17T08:34:09.429Z,18.57
2018-05-17T08:35:09.660Z,19.11
2018-05-17T08:36:09.988Z,19.32
2018-05-17T08:37:16.726Z,19.05
2018-05-17T08:38:10.307Z,19.57
2018-05-17T08:39:10.539Z,20.08
2018-05-17T08:40:12.273Z,20.28
2018-05-17T08:41:12.715Z,20.03
2018-05-17T08:42:12.721Z,19.75
2018-05-17T08:43:11.195Z,19.40
2018-05-17T08:44:11.409Z,18.98
2018-05-17T08:45:11.623Z,19.31
2018-05-17T08:46:13.739Z,18.98
2018-05-17T08:47:11.965Z,18.64
2018-05-17T08:48:12.187Z,18.00
2018-05-17T08:49:14.223Z,17.91
2018-05-17T08:50:12.575Z,17.73
2018-05-17T08:51:12.792Z,17.25
2018-05-17T08:52:15.723Z,16.71
2018-05-17T08:53:13.982Z,16.85
2018-05-17T08:54:13.398Z,16.71
2018-05-17T08:55:14.582Z,16.89
2018-05-17T08:56:13.813Z,17.26
2018-05-17T08:57:15.736Z,17.17
2018-05-17T08:58:14.215Z,16.59
2018-05-17T08:59:16.219Z,16.45
2018-05-17T09:00:16.223Z,16.65
2018-05-17T09:01:14.690Z,17.23
2018-05-17T09:02:17.735Z,17.47
2018-05-17T09:03:15.081Z,17.69
2018-05-17T09:04:15.322Z,18.00
2018-05-17T09:05:15.545Z,18.31
2018-05-17T09:06:15.858Z,18.31
2018-05-17T09:07:16.001Z,17.85
2018-05-17T09:08:16.241Z,17.92
2018-05-17T09:09:16.456Z,18.13
2018-05-17T09:10:18.223Z,18.31
2018-05-17T09:11:16.820Z,18.34
2018-05-17T09:12:18.718Z,18.50
2018-05-17T09:13:17.197Z,18.95
2018-05-17T09:14:19.222Z,20.00
2018-05-17T09:15:21.237Z,20.84
2018-05-17T09:16:18.715Z,20.74
2018-05-17T09:17:17.958Z,20.56
2018-05-17T09:18:22.736Z,21.26
2018-05-17T09:19:18.202Z,21.56
2018-05-17T09:20:18.522Z,20.99
2018-05-17T09:21:18.652Z,21.17
2018-05-17T09:22:26.798Z,22.04
2018-05-17T09:23:20.075Z,22.65
2018-05-17T09:24:19.306Z,22.68
2018-05-17T09:25:21.231Z,23.09
2018-05-17T09:26:21.256Z,23.32
2018-05-17T09:27:21.767Z,22.71
2018-05-17T09:28:21.028Z,22.93
2018-05-17T09:29:21.726Z,22.59
2018-05-17T09:30:22.230Z,22.37
2018-05-17T09:31:27.462Z,22.22
2018-05-17T09:32:20.689Z,22.67
2018-05-17T09:33:24.731Z,22.83
2018-05-17T09:34:25.164Z,22.68
2018-05-17T09:35:21.278Z,21.01
2018-05-17T09:36:23.253Z,20.53
2018-05-17T09:37:23.265Z,20.39
2018-05-17T09:38:21.975Z,21.13
2018-05-17T09:39:23.721Z,21.72
2018-05-17T09:40:22.477Z,21.57
2018-05-17T09:41:24.291Z,21.57
2018-05-17T09:42:30.724Z,21.50
2018-05-17T09:43:23.079Z,21.42
2018-05-17T09:44:23.314Z,21.23
2018-05-17T09:45:27.904Z,20.99
2018-05-17T09:46:27.770Z,20.42
2018-05-17T09:47:31.830Z,19.28
2018-05-17T09:48:25.745Z,18.46
2018-05-17T09:49:24.231Z,18.77
2018-05-17T09:50:25.502Z,18.95
2018-05-17T09:51:24.718Z,19.21
2018-05-17T09:52:28.736Z,19.40
2018-05-17T09:53:26.734Z,19.78
2018-05-17T09:54:28.752Z,19.91
2018-05-17T09:55:25.378Z,20.18
2018-05-17T09:56:29.259Z,20.46
2018-05-17T09:57:27.319Z,21.17
2018-05-17T09:58:27.104Z,21.81
2018-05-17T09:59:27.732Z,22.35
2018-05-17T10:00:26.327Z,23.01
2018-05-17T10:01:28.230Z,23.09
2018-05-17T10:02:26.761Z,22.72
2018-05-17T10:03:28.724Z,21.48
2018-05-17T10:04:27.068Z,21.76
2018-05-17T10:05:28.345Z,22.37
2018-05-17T10:06:27.456Z,22.35
2018-05-17T10:07:29.251Z,22.38
2018-05-17T10:08:43.723Z,21.35
2018-05-17T10:09:29.743Z,21.57
2018-05-17T10:10:28.214Z,21.42
2018-05-17T10:11:28.445Z,22.06
2018-05-17T10:12:28.677Z,21.90
2018-05-17T10:13:30.764Z,21.82
2018-05-17T10:14:29.171Z,20.96
2018-05-17T10:15:30.332Z,21.11
2018-05-17T10:16:29.613Z,21.09
2018-05-17T10:17:29.742Z,21.26
2018-05-17T10:18:32.747Z,21.09
2018-05-17T10:19:31.105Z,21.11
2018-05-17T10:20:30.223Z,20.91
2018-05-17T10:21:30.497Z,20.83
2018-05-17T10:22:32.227Z,20.18
2018-05-17T10:23:33.746Z,20.10
2018-05-17T10:24:37.744Z,20.18
2018-05-17T10:25:32.728Z,19.97
2018-05-17T10:26:31.338Z,19.66
2018-05-17T10:27:31.590Z,18.73
2018-05-17T10:28:35.744Z,18.65
2018-05-17T10:29:32.068Z,17.88
2018-05-17T10:30:33.213Z,18.17
2018-05-17T10:31:32.441Z,18.15
2018-05-17T10:32:32.663Z,17.57
2018-05-17T10:33:32.883Z,17.87
2018-05-17T10:34:33.117Z,17.43
2018-05-17T10:35:35.232Z,17.40
2018-05-17T10:36:33.582Z,17.64
2018-05-17T10:37:33.797Z,17.59
2018-05-17T10:38:34.030Z,17.88
2018-05-17T10:39:36.227Z,18.21
2018-05-17T10:40:34.469Z,18.68
2018-05-17T10:41:34.683Z,19.01
2018-05-17T10:42:36.727Z,19.10
2018-05-17T10:43:35.079Z,18.74
2018-05-17T10:44:35.302Z,18.98
2018-05-17T10:45:39.277Z,19.57
2018-05-17T10:46:37.239Z,20.08
2018-05-17T10:47:35.827Z,20.08
2018-05-17T10:48:37.739Z,19.35
2018-05-17T10:49:36.209Z,19.87
2018-05-17T10:50:38.234Z,20.25
2018-05-17T10:51:36.601Z,20.59
2018-05-17T10:52:36.714Z,20.98
2018-05-17T10:53:40.733Z,21.06
2018-05-17T10:54:40.745Z,20.89
2018-05-17T10:55:40.815Z,21.19
2018-05-17T10:56:39.230Z,21.61
2018-05-17T10:57:37.623Z,20.83
2018-05-17T10:58:39.772Z,20.42
2018-05-17T10:59:39.804Z,20.91
2018-05-17T11:00:41.731Z,21.83
2018-05-17T11:01:39.269Z,22.19
2018-05-17T11:02:38.545Z,22.92
2018-05-17T11:03:39.775Z,22.97
2018-05-17T11:05:01.730Z,23.20
2018-05-17T11:05:40.061Z,23.23
2018-05-17T11:06:39.317Z,22.80
2018-05-17T11:07:39.424Z,21.81
2018-05-17T11:08:41.272Z,21.61
2018-05-17T11:09:47.738Z,21.21
2018-05-17T11:10:40.079Z,21.53
2018-05-17T11:11:40.334Z,21.90
2018-05-17T11:12:42.233Z,22.07
2018-05-17T11:13:42.259Z,22.56
2018-05-17T11:14:44.257Z,22.96
2018-05-17T11:15:42.732Z,23.34
2018-05-17T11:16:43.751Z,23.79
2018-05-17T11:17:42.750Z,23.12
2018-05-17T11:18:41.363Z,21.81
2018-05-17T11:19:43.251Z,22.31
2018-05-17T11:20:41.714Z,22.10
2018-05-17T11:21:41.944Z,22.06
2018-05-17T11:22:43.734Z,21.67
2018-05-17T11:23:43.328Z,20.69
2018-05-17T11:24:42.559Z,20.72
2018-05-17T11:25:43.809Z,21.06
2018-05-17T11:26:46.735Z,20.79
2018-05-17T11:27:44.733Z,20.87
2018-05-17T11:28:44.211Z,20.43
2018-05-17T11:29:43.434Z,19.69
2018-05-17T11:30:47.233Z,19.53
2018-05-17T11:31:43.817Z,18.95
2018-05-17T11:32:44.050Z,18.76
2018-05-17T11:33:44.283Z,18.55
2018-05-17T11:34:44.501Z,18.62
2018-05-17T11:35:48.284Z,19.06
2018-05-17T11:36:44.962Z,19.42
2018-05-17T11:37:45.211Z,19.84
2018-05-17T11:38:45.429Z,19.87
2018-05-17T11:39:46.645Z,19.50
2018-05-17T11:40:45.902Z,19.18
2018-05-17T11:41:47.751Z,19.65
2018-05-17T11:42:46.236Z,20.08
2018-05-17T11:43:46.495Z,20.43
2018-05-17T11:44:46.708Z,20.64
2018-05-17T11:45:49.752Z,20.50
2018-05-17T11:46:47.090Z,19.90
2018-05-17T11:47:53.268Z,19.63
2018-05-17T11:48:50.248Z,19.83
2018-05-17T11:49:47.610Z,19.53
2018-05-17T11:50:47.819Z,18.76
2018-05-17T11:51:48.053Z,18.39
2018-05-17T11:52:48.295Z,18.22
2018-05-17T11:53:48.517Z,18.06
2018-05-17T11:54:48.750Z,18.39
2018-05-17T11:55:48.954Z,18.73
2018-05-17T11:56:49.190Z,18.97
2018-05-17T11:57:49.426Z,19.10
2018-05-17T11:58:49.670Z,19.15
2018-05-17T11:59:49.864Z,19.08
2018-05-17T12:00:50.083Z,18.28
2018-05-17T12:01:50.306Z,18.58
2018-05-17T12:02:53.240Z,19.01
2018-05-17T12:03:50.720Z,19.31
2018-05-17T12:04:50.958Z,19.60
2018-05-17T12:05:52.762Z,19.70
2018-05-17T12:06:51.335Z,19.46
2018-05-17T12:07:51.565Z,19.46
2018-05-17T12:08:51.797Z,19.66
2018-05-17T12:09:52.015Z,20.09
2018-05-17T12:10:52.247Z,20.43
2018-05-17T12:11:52.474Z,20.89
2018-05-17T12:12:53.346Z,21.17
2018-05-17T12:13:54.739Z,21.50
2018-05-17T12:14:54.759Z,21.63
2018-05-17T12:15:53.113Z,21.72
2018-05-17T12:16:53.348Z,21.60
2018-05-17T12:17:53.560Z,21.35
2018-05-17T12:18:53.810Z,20.72
2018-05-17T12:19:55.740Z,19.42
2018-05-17T12:20:54.214Z,18.87
2018-05-17T12:21:54.454Z,19.39
2018-05-17T12:22:57.278Z,19.76
2018-05-17T12:23:54.875Z,20.21
2018-05-17T12:24:54.987Z,20.69
2018-05-17T12:25:56.747Z,20.79
2018-05-17T12:26:57.242Z,21.20
2018-05-17T12:27:55.612Z,21.48
2018-05-17T12:28:55.736Z,21.74
2018-05-17T12:29:59.756Z,21.91
2018-05-17T12:30:56.099Z,22.17
2018-05-17T12:31:58.337Z,22.35
2018-05-17T12:32:56.478Z,22.43
2018-05-17T12:33:58.248Z,22.52
2018-05-17T12:34:59.773Z,22.86
2018-05-17T12:35:57.011Z,22.90
2018-05-17T12:36:58.746Z,22.02
2018-05-17T12:37:57.358Z,20.96
2018-05-17T12:38:57.594Z,20.61
2018-05-17T12:39:57.813Z,20.53
2018-05-17T12:41:01.759Z,19.87
2018-05-17T12:41:59.252Z,19.83
2018-05-17T12:43:00.258Z,20.23
2018-05-17T12:44:02.243Z,20.46
2018-05-17T12:44:58.835Z,20.83
2018-05-17T12:46:00.064Z,21.09
2018-05-17T12:47:03.247Z,21.06
2018-05-17T12:47:59.502Z,21.30
2018-05-17T12:49:00.671Z,21.04
2018-05-17T12:49:59.948Z,20.62
2018-05-17T12:51:00.127Z,20.39
2018-05-17T12:52:00.391Z,20.24
2018-05-17T12:53:00.589Z,20.23
2018-05-17T12:54:00.830Z,20.18
2018-05-17T12:55:02.792Z,20.38